sensor_id;sensor_type;location;lat;lon;timestamp;pressure;altitude;pressure_sealevel;temperature;humidity
45040;BME280;30778;53.574;7.770;2023-03-04T00:00:23;102360.34;;;3.51;49.25
45040;BME280;30778;53.574;7.770;2023-03-04T00:02:48;102360.09;;;3.33;49.41
45040;BME280;30778;53.574;7.770;2023-03-04T00:05:14;102363.69;;;3.44;49.08
45040;BME280;30778;53.574;7.770;2023-03-04T00:07:40;102360.28;;;3.45;49.00
45040;BME280;30778;53.574;7.770;2023-03-04T00:10:05;102349.72;;;3.30;49.50
45040;BME280;30778;53.574;7.770;2023-03-04T00:12:31;102354.38;;;3.54;49.00
45040;BME280;30778;53.574;7.770;2023-03-04T00:14:56;102352.13;;;3.83;48.64
45040;BME280;30778;53.574;7.770;2023-03-04T00:17:22;102356.06;;;3.52;48.87
45040;BME280;30778;53.574;7.770;2023-03-04T00:19:48;102358.66;;;3.55;49.10
45040;BME280;30778;53.574;7.770;2023-03-04T00:22:14;102351.44;;;3.31;49.89
45040;BME280;30778;53.574;7.770;2023-03-04T00:24:39;102347.25;;;3.39;50.02
45040;BME280;30778;53.574;7.770;2023-03-04T00:27:05;102344.31;;;3.17;50.29
45040;BME280;30778;53.574;7.770;2023-03-04T00:29:30;102342.06;;;3.37;49.83
45040;BME280;30778;53.574;7.770;2023-03-04T00:31:55;102349.47;;;3.14;50.58
45040;BME280;30778;53.574;7.770;2023-03-04T00:34:21;102348.03;;;3.32;50.38
45040;BME280;30778;53.574;7.770;2023-03-04T00:36:47;102347.78;;;3.16;50.80
45040;BME280;30778;53.574;7.770;2023-03-04T00:39:12;102334.47;;;3.51;50.04
45040;BME280;30778;53.574;7.770;2023-03-04T00:41:38;102338.03;;;3.59;49.96
45040;BME280;30778;53.574;7.770;2023-03-04T00:44:04;102335.47;;;3.59;49.91
45040;BME280;30778;53.574;7.770;2023-03-04T00:46:30;102340.13;;;3.91;49.20
45040;BME280;30778;53.574;7.770;2023-03-04T00:48:56;102327.19;;;3.88;49.30
45040;BME280;30778;53.574;7.770;2023-03-04T00:51:21;102331.94;;;3.56;50.23
45040;BME280;30778;53.574;7.770;2023-03-04T00:53:47;102328.63;;;3.63;49.95
45040;BME280;30778;53.574;7.770;2023-03-04T00:56:13;102327.03;;;3.74;49.59
45040;BME280;30778;53.574;7.770;2023-03-04T00:58:38;102323.13;;;3.40;50.21
45040;BME280;30778;53.574;7.770;2023-03-04T01:01:05;102324.09;;;3.45;50.20
45040;BME280;30778;53.574;7.770;2023-03-04T01:03:31;102321.03;;;3.77;49.17
45040;BME280;30778;53.574;7.770;2023-03-04T01:05:57;102325.03;;;3.52;49.73
45040;BME280;30778;53.574;7.770;2023-03-04T01:08:23;102323.66;;;3.17;50.49
45040;BME280;30778;53.574;7.770;2023-03-04T01:10:49;102323.31;;;3.52;49.25
45040;BME280;30778;53.574;7.770;2023-03-04T01:13:15;102315.56;;;3.55;49.19
45040;BME280;30778;53.574;7.770;2023-03-04T01:15:41;102318.16;;;3.55;48.79
45040;BME280;30778;53.574;7.770;2023-03-04T01:18:07;102313.31;;;3.16;49.23
45040;BME280;30778;53.574;7.770;2023-03-04T01:20:33;102309.31;;;3.38;48.87
45040;BME280;30778;53.574;7.770;2023-03-04T01:22:59;102313.63;;;3.36;48.47
45040;BME280;30778;53.574;7.770;2023-03-04T01:25:24;102299.84;;;3.37;49.25
45040;BME280;30778;53.574;7.770;2023-03-04T01:27:50;102300.16;;;3.65;48.56
45040;BME280;30778;53.574;7.770;2023-03-04T01:30:18;102298.63;;;3.79;48.56
45040;BME280;30778;53.574;7.770;2023-03-04T01:32:43;102295.16;;;3.77;48.79
45040;BME280;30778;53.574;7.770;2023-03-04T01:35:09;102293.31;;;3.65;48.89
45040;BME280;30778;53.574;7.770;2023-03-04T01:37:34;102293.41;;;3.76;48.64
45040;BME280;30778;53.574;7.770;2023-03-04T01:40:00;102294.81;;;3.48;49.09
45040;BME280;30778;53.574;7.770;2023-03-04T01:42:27;102285.25;;;3.41;49.44
45040;BME280;30778;53.574;7.770;2023-03-04T01:44:54;102279.50;;;3.65;48.59
45040;BME280;30778;53.574;7.770;2023-03-04T01:47:21;102278.50;;;3.52;49.26
45040;BME280;30778;53.574;7.770;2023-03-04T01:49:52;102266.47;;;3.54;49.00
45040;BME280;30778;53.574;7.770;2023-03-04T01:52:18;102264.69;;;3.50;49.51
45040;BME280;30778;53.574;7.770;2023-03-04T01:54:44;102268.31;;;3.66;49.56
45040;BME280;30778;53.574;7.770;2023-03-04T01:57:17;102264.72;;;3.53;49.99
45040;BME280;30778;53.574;7.770;2023-03-04T01:59:43;102254.00;;;3.27;51.01
45040;BME280;30778;53.574;7.770;2023-03-04T02:02:08;102258.69;;;3.52;50.55
45040;BME280;30778;53.574;7.770;2023-03-04T02:04:34;102251.94;;;3.67;50.42
45040;BME280;30778;53.574;7.770;2023-03-04T02:07:01;102250.22;;;3.69;50.62
45040;BME280;30778;53.574;7.770;2023-03-04T02:09:28;102251.66;;;3.42;51.47
45040;BME280;30778;53.574;7.770;2023-03-04T02:11:54;102249.06;;;3.42;51.30
45040;BME280;30778;53.574;7.770;2023-03-04T02:14:21;102244.81;;;3.46;51.24
45040;BME280;30778;53.574;7.770;2023-03-04T02:16:48;102240.06;;;3.12;51.97
45040;BME280;30778;53.574;7.770;2023-03-04T02:19:37;102239.44;;;3.29;51.38
45040;BME280;30778;53.574;7.770;2023-03-04T02:22:06;102234.38;;;3.38;51.27
45040;BME280;30778;53.574;7.770;2023-03-04T02:24:38;102230.38;;;3.63;50.39
45040;BME280;30778;53.574;7.770;2023-03-04T02:27:04;102226.81;;;3.55;50.93
45040;BME280;30778;53.574;7.770;2023-03-04T02:29:30;102220.69;;;3.45;51.06
45040;BME280;30778;53.574;7.770;2023-03-04T02:31:56;102224.38;;;3.00;52.17
45040;BME280;30778;53.574;7.770;2023-03-04T02:34:24;102215.38;;;3.33;51.14
45040;BME280;30778;53.574;7.770;2023-03-04T02:36:52;102217.88;;;3.28;51.39
45040;BME280;30778;53.574;7.770;2023-03-04T02:41:45;102215.41;;;3.36;51.27
45040;BME280;30778;53.574;7.770;2023-03-04T02:44:21;102204.44;;;3.57;50.60
45040;BME280;30778;53.574;7.770;2023-03-04T02:46:49;102206.91;;;3.46;50.72
45040;BME280;30778;53.574;7.770;2023-03-04T02:49:15;102207.44;;;3.22;51.43
45040;BME280;30778;53.574;7.770;2023-03-04T02:51:41;102209.47;;;3.45;50.91
45040;BME280;30778;53.574;7.770;2023-03-04T02:54:23;102200.78;;;3.39;50.88
45040;BME280;30778;53.574;7.770;2023-03-04T02:56:51;102210.25;;;3.36;51.16
45040;BME280;30778;53.574;7.770;2023-03-04T02:59:18;102194.53;;;3.21;51.53
45040;BME280;30778;53.574;7.770;2023-03-04T03:01:44;102193.84;;;3.35;51.10
45040;BME280;30778;53.574;7.770;2023-03-04T03:04:09;102205.34;;;3.61;50.33
45040;BME280;30778;53.574;7.770;2023-03-04T03:06:35;102199.13;;;3.45;50.90
45040;BME280;30778;53.574;7.770;2023-03-04T03:09:01;102195.38;;;3.21;51.52
45040;BME280;30778;53.574;7.770;2023-03-04T03:11:27;102195.56;;;3.32;51.77
45040;BME280;30778;53.574;7.770;2023-03-04T03:13:54;102191.09;;;3.25;51.88
45040;BME280;30778;53.574;7.770;2023-03-04T03:16:20;102184.69;;;3.67;50.98
45040;BME280;30778;53.574;7.770;2023-03-04T03:18:48;102196.72;;;3.62;51.26
45040;BME280;30778;53.574;7.770;2023-03-04T03:21:14;102191.38;;;3.46;51.86
45040;BME280;30778;53.574;7.770;2023-03-04T03:23:39;102183.72;;;3.54;51.57
45040;BME280;30778;53.574;7.770;2023-03-04T03:26:05;102180.44;;;2.94;52.98
45040;BME280;30778;53.574;7.770;2023-03-04T03:28:31;102175.09;;;3.53;52.17
45040;BME280;30778;53.574;7.770;2023-03-04T03:30:57;102176.06;;;3.65;52.09
45040;BME280;30778;53.574;7.770;2023-03-04T03:33:23;102172.41;;;3.44;52.69
45040;BME280;30778;53.574;7.770;2023-03-04T03:35:48;102175.09;;;3.52;52.69
45040;BME280;30778;53.574;7.770;2023-03-04T03:38:14;102172.38;;;3.41;52.86
45040;BME280;30778;53.574;7.770;2023-03-04T03:40:40;102171.50;;;3.39;53.38
45040;BME280;30778;53.574;7.770;2023-03-04T03:43:05;102175.78;;;3.37;53.84
45040;BME280;30778;53.574;7.770;2023-03-04T03:45:31;102173.88;;;3.24;54.25
45040;BME280;30778;53.574;7.770;2023-03-04T03:47:56;102175.59;;;3.22;54.97
45040;BME280;30778;53.574;7.770;2023-03-04T03:50:22;102179.59;;;2.96;55.33
45040;BME280;30778;53.574;7.770;2023-03-04T03:52:47;102181.91;;;3.44;54.94
45040;BME280;30778;53.574;7.770;2023-03-04T03:55:13;102178.91;;;3.11;55.45
45040;BME280;30778;53.574;7.770;2023-03-04T03:57:39;102175.59;;;3.25;55.22
45040;BME280;30778;53.574;7.770;2023-03-04T04:00:05;102184.13;;;3.14;55.35
45040;BME280;30778;53.574;7.770;2023-03-04T04:02:37;102170.63;;;3.40;55.13
45040;BME280;30778;53.574;7.770;2023-03-04T04:05:03;102168.50;;;3.05;55.89
45040;BME280;30778;53.574;7.770;2023-03-04T04:07:29;102172.19;;;3.26;55.48
45040;BME280;30778;53.574;7.770;2023-03-04T04:09:55;102184.09;;;3.11;56.45
45040;BME280;30778;53.574;7.770;2023-03-04T04:12:20;102171.78;;;2.92;57.85
45040;BME280;30778;53.574;7.770;2023-03-04T04:14:46;102172.53;;;2.83;58.28
45040;BME280;30778;53.574;7.770;2023-03-04T04:17:12;102173.28;;;2.74;58.96
45040;BME280;30778;53.574;7.770;2023-03-04T04:19:39;102172.75;;;3.02;58.22
45040;BME280;30778;53.574;7.770;2023-03-04T04:22:06;102166.88;;;3.12;58.01
45040;BME280;30778;53.574;7.770;2023-03-04T04:24:33;102170.13;;;2.97;58.69
45040;BME280;30778;53.574;7.770;2023-03-04T04:26:58;102175.25;;;2.95;58.79
45040;BME280;30778;53.574;7.770;2023-03-04T04:29:24;102168.44;;;2.99;58.86
45040;BME280;30778;53.574;7.770;2023-03-04T04:31:50;102167.75;;;3.15;58.37
45040;BME280;30778;53.574;7.770;2023-03-04T04:34:15;102168.81;;;3.30;57.50
45040;BME280;30778;53.574;7.770;2023-03-04T04:36:41;102169.38;;;3.09;58.00
45040;BME280;30778;53.574;7.770;2023-03-04T04:39:06;102162.53;;;3.09;58.14
45040;BME280;30778;53.574;7.770;2023-03-04T04:41:40;102162.28;;;2.89;58.50
45040;BME280;30778;53.574;7.770;2023-03-04T04:44:06;102166.88;;;3.15;57.36
45040;BME280;30778;53.574;7.770;2023-03-04T04:46:32;102164.53;;;3.33;57.20
45040;BME280;30778;53.574;7.770;2023-03-04T04:48:57;102164.41;;;3.24;57.81
45040;BME280;30778;53.574;7.770;2023-03-04T04:51:23;102162.84;;;3.34;57.31
45040;BME280;30778;53.574;7.770;2023-03-04T04:53:48;102171.03;;;3.02;58.52
45040;BME280;30778;53.574;7.770;2023-03-04T04:56:18;102170.31;;;3.12;58.55
45040;BME280;30778;53.574;7.770;2023-03-04T04:58:45;102163.81;;;2.73;60.01
45040;BME280;30778;53.574;7.770;2023-03-04T05:01:11;102158.66;;;2.73;59.95
45040;BME280;30778;53.574;7.770;2023-03-04T05:03:38;102174.38;;;2.92;59.72
45040;BME280;30778;53.574;7.770;2023-03-04T05:06:06;102163.13;;;2.87;59.56
45040;BME280;30778;53.574;7.770;2023-03-04T05:08:32;102174.41;;;2.95;59.77
45040;BME280;30778;53.574;7.770;2023-03-04T05:10:57;102163.47;;;2.50;60.81
45040;BME280;30778;53.574;7.770;2023-03-04T05:13:23;102174.13;;;2.73;59.60
45040;BME280;30778;53.574;7.770;2023-03-04T05:15:53;102165.75;;;2.91;58.95
45040;BME280;30778;53.574;7.770;2023-03-04T05:18:20;102163.41;;;2.46;60.37
45040;BME280;30778;53.574;7.770;2023-03-04T05:20:53;102161.41;;;2.89;59.51
45040;BME280;30778;53.574;7.770;2023-03-04T05:23:19;102151.22;;;3.01;59.16
45040;BME280;30778;53.574;7.770;2023-03-04T05:25:45;102160.19;;;2.62;59.57
45040;BME280;30778;53.574;7.770;2023-03-04T05:28:11;102155.41;;;2.90;58.86
45040;BME280;30778;53.574;7.770;2023-03-04T05:30:38;102154.94;;;3.25;57.51
45040;BME280;30778;53.574;7.770;2023-03-04T05:33:05;102154.41;;;2.79;58.33
45040;BME280;30778;53.574;7.770;2023-03-04T05:35:36;102152.31;;;3.22;57.34
45040;BME280;30778;53.574;7.770;2023-03-04T05:38:03;102145.41;;;3.19;57.38
45040;BME280;30778;53.574;7.770;2023-03-04T05:40:29;102153.66;;;2.87;57.94
45040;BME280;30778;53.574;7.770;2023-03-04T05:42:55;102166.91;;;3.16;56.74
45040;BME280;30778;53.574;7.770;2023-03-04T05:45:21;102161.47;;;2.92;57.69
45040;BME280;30778;53.574;7.770;2023-03-04T05:47:47;102164.19;;;3.06;57.15
45040;BME280;30778;53.574;7.770;2023-03-04T05:50:12;102159.91;;;3.06;57.05
45040;BME280;30778;53.574;7.770;2023-03-04T05:52:38;102158.66;;;2.76;57.46
45040;BME280;30778;53.574;7.770;2023-03-04T05:55:03;102162.19;;;2.80;57.30
45040;BME280;30778;53.574;7.770;2023-03-04T05:57:29;102159.81;;;3.00;55.91
45040;BME280;30778;53.574;7.770;2023-03-04T05:59:54;102157.88;;;2.81;55.90
45040;BME280;30778;53.574;7.770;2023-03-04T06:02:20;102150.16;;;2.84;54.66
45040;BME280;30778;53.574;7.770;2023-03-04T06:04:45;102159.78;;;2.97;52.79
45040;BME280;30778;53.574;7.770;2023-03-04T06:07:11;102138.41;;;3.10;52.35
45040;BME280;30778;53.574;7.770;2023-03-04T06:09:36;102151.94;;;2.88;52.03
45040;BME280;30778;53.574;7.770;2023-03-04T06:12:02;102150.22;;;2.87;51.63
45040;BME280;30778;53.574;7.770;2023-03-04T06:14:27;102144.50;;;3.14;51.07
45040;BME280;30778;53.574;7.770;2023-03-04T06:16:53;102143.09;;;3.42;50.85
45040;BME280;30778;53.574;7.770;2023-03-04T06:19:18;102154.44;;;2.82;51.87
45040;BME280;30778;53.574;7.770;2023-03-04T06:21:44;102149.13;;;2.69;51.81
45040;BME280;30778;53.574;7.770;2023-03-04T06:24:09;102154.81;;;3.12;50.51
45040;BME280;30778;53.574;7.770;2023-03-04T06:26:35;102147.03;;;3.09;50.45
45040;BME280;30778;53.574;7.770;2023-03-04T06:29:00;102162.00;;;3.36;50.11
45040;BME280;30778;53.574;7.770;2023-03-04T06:31:26;102159.25;;;3.24;49.74
45040;BME280;30778;53.574;7.770;2023-03-04T06:33:52;102156.53;;;3.12;49.91
45040;BME280;30778;53.574;7.770;2023-03-04T06:36:17;102166.09;;;3.21;49.33
45040;BME280;30778;53.574;7.770;2023-03-04T06:38:43;102163.56;;;3.27;49.20
45040;BME280;30778;53.574;7.770;2023-03-04T06:41:10;102164.53;;;3.32;48.96
45040;BME280;30778;53.574;7.770;2023-03-04T06:43:36;102166.06;;;3.17;50.12
45040;BME280;30778;53.574;7.770;2023-03-04T06:46:02;102166.00;;;3.13;50.56
45040;BME280;30778;53.574;7.770;2023-03-04T06:48:27;102170.91;;;2.90;51.04
45040;BME280;30778;53.574;7.770;2023-03-04T06:50:53;102170.25;;;3.08;50.69
45040;BME280;30778;53.574;7.770;2023-03-04T06:53:18;102177.19;;;3.13;50.92
45040;BME280;30778;53.574;7.770;2023-03-04T06:55:44;102176.44;;;3.21;50.41
45040;BME280;30778;53.574;7.770;2023-03-04T06:58:09;102184.91;;;3.07;50.13
45040;BME280;30778;53.574;7.770;2023-03-04T07:00:34;102185.91;;;3.22;49.69
45040;BME280;30778;53.574;7.770;2023-03-04T07:03:00;102185.28;;;2.72;49.98
45040;BME280;30778;53.574;7.770;2023-03-04T07:05:26;102187.31;;;2.95;49.72
45040;BME280;30778;53.574;7.770;2023-03-04T07:07:51;102180.25;;;2.82;49.52
45040;BME280;30778;53.574;7.770;2023-03-04T07:10:18;102194.56;;;3.24;48.76
45040;BME280;30778;53.574;7.770;2023-03-04T07:12:43;102184.69;;;2.93;48.31
45040;BME280;30778;53.574;7.770;2023-03-04T07:15:09;102190.16;;;3.16;46.87
45040;BME280;30778;53.574;7.770;2023-03-04T07:17:34;102186.09;;;3.34;46.70
45040;BME280;30778;53.574;7.770;2023-03-04T07:20:00;102191.31;;;3.40;46.48
45040;BME280;30778;53.574;7.770;2023-03-04T07:22:26;102190.47;;;3.39;46.70
45040;BME280;30778;53.574;7.770;2023-03-04T07:24:51;102190.28;;;3.26;47.33
45040;BME280;30778;53.574;7.770;2023-03-04T07:27:16;102197.16;;;3.27;48.14
45040;BME280;30778;53.574;7.770;2023-03-04T07:29:42;102197.09;;;3.19;48.78
45040;BME280;30778;53.574;7.770;2023-03-04T07:32:08;102197.75;;;3.04;50.82
45040;BME280;30778;53.574;7.770;2023-03-04T07:34:34;102207.72;;;3.42;49.98
45040;BME280;30778;53.574;7.770;2023-03-04T07:36:59;102202.66;;;2.83;51.05
45040;BME280;30778;53.574;7.770;2023-03-04T07:39:25;102210.03;;;3.22;50.45
45040;BME280;30778;53.574;7.770;2023-03-04T07:41:50;102216.91;;;3.18;48.97
45040;BME280;30778;53.574;7.770;2023-03-04T07:44:15;102212.47;;;3.10;48.84
45040;BME280;30778;53.574;7.770;2023-03-04T07:46:41;102215.03;;;3.08;47.77
45040;BME280;30778;53.574;7.770;2023-03-04T07:49:06;102216.91;;;3.22;47.81
45040;BME280;30778;53.574;7.770;2023-03-04T07:51:32;102218.06;;;3.41;47.14
45040;BME280;30778;53.574;7.770;2023-03-04T07:53:59;102215.41;;;3.34;47.12
45040;BME280;30778;53.574;7.770;2023-03-04T07:56:28;102220.06;;;2.96;48.30
45040;BME280;30778;53.574;7.770;2023-03-04T07:58:54;102218.00;;;3.37;48.13
45040;BME280;30778;53.574;7.770;2023-03-04T08:01:35;102220.78;;;3.54;47.40
45040;BME280;30778;53.574;7.770;2023-03-04T08:04:02;102219.97;;;3.58;47.91
45040;BME280;30778;53.574;7.770;2023-03-04T08:06:27;102214.97;;;3.74;47.91
45040;BME280;30778;53.574;7.770;2023-03-04T08:09:05;102226.94;;;3.66;48.20
45040;BME280;30778;53.574;7.770;2023-03-04T08:11:32;102228.75;;;3.76;47.97
45040;BME280;30778;53.574;7.770;2023-03-04T08:13:58;102232.34;;;3.15;48.30
45040;BME280;30778;53.574;7.770;2023-03-04T08:16:24;102224.97;;;3.45;47.64
45040;BME280;30778;53.574;7.770;2023-03-04T08:18:53;102230.38;;;2.97;49.32
45040;BME280;30778;53.574;7.770;2023-03-04T08:21:20;102231.28;;;2.98;49.28
45040;BME280;30778;53.574;7.770;2023-03-04T08:23:47;102232.88;;;2.90;48.59
45040;BME280;30778;53.574;7.770;2023-03-04T08:26:36;102240.03;;;2.50;48.46
45040;BME280;30778;53.574;7.770;2023-03-04T08:29:03;102232.28;;;3.09;47.59
45040;BME280;30778;53.574;7.770;2023-03-04T08:31:30;102229.69;;;3.11;46.80
45040;BME280;30778;53.574;7.770;2023-03-04T08:33:55;102234.13;;;3.19;46.59
45040;BME280;30778;53.574;7.770;2023-03-04T08:36:20;102231.06;;;3.51;45.99
45040;BME280;30778;53.574;7.770;2023-03-04T08:38:46;102223.13;;;2.70;46.54
45040;BME280;30778;53.574;7.770;2023-03-04T08:41:12;102230.31;;;2.93;46.07
45040;BME280;30778;53.574;7.770;2023-03-04T08:43:38;102239.16;;;3.10;46.43
45040;BME280;30778;53.574;7.770;2023-03-04T08:46:04;102235.72;;;3.10;46.07
45040;BME280;30778;53.574;7.770;2023-03-04T08:48:30;102241.19;;;3.30;45.63
45040;BME280;30778;53.574;7.770;2023-03-04T08:50:55;102234.59;;;3.56;45.04
45040;BME280;30778;53.574;7.770;2023-03-04T08:53:21;102224.69;;;3.23;45.70
45040;BME280;30778;53.574;7.770;2023-03-04T08:55:47;102243.78;;;3.33;44.92
45040;BME280;30778;53.574;7.770;2023-03-04T08:58:13;102238.41;;;3.16;44.81
45040;BME280;30778;53.574;7.770;2023-03-04T09:00:42;102246.25;;;3.27;43.95
45040;BME280;30778;53.574;7.770;2023-03-04T09:03:10;102240.53;;;2.84;44.83
45040;BME280;30778;53.574;7.770;2023-03-04T09:05:36;102244.69;;;3.35;44.03
45040;BME280;30778;53.574;7.770;2023-03-04T09:08:01;102251.56;;;2.72;46.09
45040;BME280;30778;53.574;7.770;2023-03-04T09:10:27;102256.91;;;2.86;46.77
45040;BME280;30778;53.574;7.770;2023-03-04T09:12:52;102262.28;;;3.00;47.76
45040;BME280;30778;53.574;7.770;2023-03-04T09:15:18;102257.84;;;2.91;48.27
45040;BME280;30778;53.574;7.770;2023-03-04T09:17:44;102256.75;;;2.75;48.03
45040;BME280;30778;53.574;7.770;2023-03-04T09:20:10;102256.22;;;2.96;47.39
45040;BME280;30778;53.574;7.770;2023-03-04T09:22:37;102252.41;;;2.72;47.38
45040;BME280;30778;53.574;7.770;2023-03-04T09:25:03;102262.63;;;2.63;47.90
45040;BME280;30778;53.574;7.770;2023-03-04T09:27:28;102259.34;;;2.73;47.51
45040;BME280;30778;53.574;7.770;2023-03-04T09:29:54;102255.25;;;2.89;47.30
45040;BME280;30778;53.574;7.770;2023-03-04T09:32:19;102264.47;;;3.33;46.09
45040;BME280;30778;53.574;7.770;2023-03-04T09:34:45;102255.72;;;3.25;46.21
45040;BME280;30778;53.574;7.770;2023-03-04T09:37:10;102256.97;;;3.54;46.56
45040;BME280;30778;53.574;7.770;2023-03-04T09:39:35;102250.16;;;2.94;48.31
45040;BME280;30778;53.574;7.770;2023-03-04T09:42:01;102262.75;;;3.33;48.09
45040;BME280;30778;53.574;7.770;2023-03-04T09:44:29;102264.53;;;3.36;48.91
45040;BME280;30778;53.574;7.770;2023-03-04T09:47:00;102257.72;;;3.44;48.28
45040;BME280;30778;53.574;7.770;2023-03-04T09:49:26;102263.94;;;3.62;48.36
45040;BME280;30778;53.574;7.770;2023-03-04T10:00:38;102262.75;;;4.10;45.35
45040;BME280;30778;53.574;7.770;2023-03-04T10:03:15;102271.34;;;3.32;46.43
45040;BME280;30778;53.574;7.770;2023-03-04T10:06:06;102258.53;;;3.40;47.66
45040;BME280;30778;53.574;7.770;2023-03-04T10:11:23;102260.88;;;3.25;48.24
45040;BME280;30778;53.574;7.770;2023-03-04T10:17:09;102259.22;;;3.28;48.56
45040;BME280;30778;53.574;7.770;2023-03-04T10:19:56;102261.75;;;3.27;48.68
45040;BME280;30778;53.574;7.770;2023-03-04T10:22:34;102265.97;;;2.59;50.63
45040;BME280;30778;53.574;7.770;2023-03-04T10:25:16;102263.69;;;2.77;51.13
45040;BME280;30778;53.574;7.770;2023-03-04T10:27:46;102263.50;;;2.65;51.19
45040;BME280;30778;53.574;7.770;2023-03-04T10:33:16;102259.34;;;3.37;50.35
45040;BME280;30778;53.574;7.770;2023-03-04T10:35:46;102254.25;;;3.41;48.09
45040;BME280;30778;53.574;7.770;2023-03-04T10:38:14;102248.19;;;4.24;45.46
45040;BME280;30778;53.574;7.770;2023-03-04T10:40:41;102253.47;;;4.36;45.47
45040;BME280;30778;53.574;7.770;2023-03-04T10:43:18;102253.25;;;4.13;44.91
45040;BME280;30778;53.574;7.770;2023-03-04T10:45:44;102258.72;;;3.54;44.98
45040;BME280;30778;53.574;7.770;2023-03-04T10:48:23;102248.25;;;3.46;45.55
45040;BME280;30778;53.574;7.770;2023-03-04T10:50:49;102253.34;;;4.21;45.33
45040;BME280;30778;53.574;7.770;2023-03-04T10:53:26;102251.97;;;4.66;44.35
45040;BME280;30778;53.574;7.770;2023-03-04T10:55:52;102242.56;;;4.83;42.80
45040;BME280;30778;53.574;7.770;2023-03-04T10:58:19;102230.25;;;4.49;43.05
45040;BME280;30778;53.574;7.770;2023-03-04T11:00:58;102229.44;;;4.54;42.60
45040;BME280;30778;53.574;7.770;2023-03-04T11:03:30;102243.66;;;5.19;41.72
45040;BME280;30778;53.574;7.770;2023-03-04T11:06:03;102232.31;;;4.97;41.57
45040;BME280;30778;53.574;7.770;2023-03-04T11:08:29;102238.84;;;4.45;42.93
45040;BME280;30778;53.574;7.770;2023-03-04T11:10:54;102247.47;;;3.52;46.98
45040;BME280;30778;53.574;7.770;2023-03-04T11:13:22;102258.28;;;3.25;48.26
45040;BME280;30778;53.574;7.770;2023-03-04T11:21:16;102251.81;;;3.54;46.89
45040;BME280;30778;53.574;7.770;2023-03-04T11:24:00;102248.69;;;3.83;47.01
45040;BME280;30778;53.574;7.770;2023-03-04T11:26:35;102252.84;;;3.70;46.98
45040;BME280;30778;53.574;7.770;2023-03-04T11:31:47;102229.41;;;4.48;46.23
45040;BME280;30778;53.574;7.770;2023-03-04T11:40:07;102232.34;;;5.05;45.02
45040;BME280;30778;53.574;7.770;2023-03-04T11:42:47;102227.09;;;4.94;45.31
45040;BME280;30778;53.574;7.770;2023-03-04T11:50:40;102213.00;;;4.48;43.90
45040;BME280;30778;53.574;7.770;2023-03-04T11:53:49;102209.59;;;4.55;42.93
45040;BME280;30778;53.574;7.770;2023-03-04T12:02:19;102216.94;;;4.01;41.27
45040;BME280;30778;53.574;7.770;2023-03-04T12:07:42;102223.56;;;3.73;41.94
45040;BME280;30778;53.574;7.770;2023-03-04T12:10:21;102210.00;;;3.97;40.63
45040;BME280;30778;53.574;7.770;2023-03-04T12:19:36;102190.28;;;4.11;39.41
45040;BME280;30778;53.574;7.770;2023-03-04T12:27:37;102191.41;;;4.47;37.62
45040;BME280;30778;53.574;7.770;2023-03-04T12:33:19;102180.91;;;4.26;38.27
45040;BME280;30778;53.574;7.770;2023-03-04T12:42:00;102196.34;;;3.28;43.02
45040;BME280;30778;53.574;7.770;2023-03-04T12:44:33;102177.66;;;3.50;44.02
45040;BME280;30778;53.574;7.770;2023-03-04T12:55:22;102169.47;;;4.00;42.00
45040;BME280;30778;53.574;7.770;2023-03-04T12:57:50;102173.34;;;3.51;42.33
45040;BME280;30778;53.574;7.770;2023-03-04T13:03:51;102169.25;;;3.70;40.69
45040;BME280;30778;53.574;7.770;2023-03-04T13:06:39;102173.00;;;4.09;40.17
45040;BME280;30778;53.574;7.770;2023-03-04T13:09:23;102162.72;;;4.18;39.59
45040;BME280;30778;53.574;7.770;2023-03-04T13:12:03;102176.81;;;3.53;42.09
45040;BME280;30778;53.574;7.770;2023-03-04T13:14:30;102183.78;;;3.60;43.20
45040;BME280;30778;53.574;7.770;2023-03-04T13:17:59;102196.41;;;3.32;45.85
45040;BME280;30778;53.574;7.770;2023-03-04T13:23:03;102183.34;;;2.57;47.34
45040;BME280;30778;53.574;7.770;2023-03-04T13:25:42;102186.69;;;2.49;47.80
45040;BME280;30778;53.574;7.770;2023-03-04T13:36:06;102171.41;;;2.64;45.57
45040;BME280;30778;53.574;7.770;2023-03-04T13:39:21;102171.31;;;3.27;44.92
45040;BME280;30778;53.574;7.770;2023-03-04T13:41:51;102164.03;;;3.67;43.75
45040;BME280;30778;53.574;7.770;2023-03-04T13:44:33;102160.53;;;3.62;43.84
45040;BME280;30778;53.574;7.770;2023-03-04T13:47:15;102162.97;;;3.48;44.77
45040;BME280;30778;53.574;7.770;2023-03-04T13:49:41;102166.25;;;3.30;45.04
45040;BME280;30778;53.574;7.770;2023-03-04T13:55:37;102169.69;;;3.30;43.93
45040;BME280;30778;53.574;7.770;2023-03-04T13:58:16;102162.69;;;3.23;43.63
45040;BME280;30778;53.574;7.770;2023-03-04T14:00:53;102155.94;;;3.34;43.88
45040;BME280;30778;53.574;7.770;2023-03-04T14:03:25;102161.66;;;3.10;43.34
45040;BME280;30778;53.574;7.770;2023-03-04T14:06:17;102160.00;;;3.15;43.34
45040;BME280;30778;53.574;7.770;2023-03-04T14:08:44;102160.22;;;3.31;42.68
45040;BME280;30778;53.574;7.770;2023-03-04T14:11:18;102159.97;;;3.12;43.59
45040;BME280;30778;53.574;7.770;2023-03-04T14:13:47;102150.66;;;3.25;43.28
45040;BME280;30778;53.574;7.770;2023-03-04T14:16:21;102152.09;;;3.81;42.68
45040;BME280;30778;53.574;7.770;2023-03-04T14:19:03;102153.03;;;3.08;43.19
45040;BME280;30778;53.574;7.770;2023-03-04T14:21:31;102152.50;;;3.35;42.59
45040;BME280;30778;53.574;7.770;2023-03-04T14:24:06;102149.94;;;3.37;43.22
45040;BME280;30778;53.574;7.770;2023-03-04T14:26:32;102149.25;;;3.53;43.04
45040;BME280;30778;53.574;7.770;2023-03-04T14:28:59;102152.13;;;3.87;42.95
45040;BME280;30778;53.574;7.770;2023-03-04T14:31:29;102152.00;;;3.73;43.15
45040;BME280;30778;53.574;7.770;2023-03-04T14:33:57;102147.44;;;2.71;44.44
45040;BME280;30778;53.574;7.770;2023-03-04T14:36:32;102147.56;;;2.84;43.74
45040;BME280;30778;53.574;7.770;2023-03-04T14:39:02;102137.00;;;3.35;44.00
45040;BME280;30778;53.574;7.770;2023-03-04T14:41:40;102149.81;;;3.28;44.34